x

Portlock Bank- 76nm Ene Of Kodiak, Ak (46080) Wave Buoy

12:50pm - Sun 25th Jan 2015 All times are AKST. -9 hours from GMT.

  • Sig Wave height 12.1ft
  • Peak Period 9s
  • Average Period 7s
  • Wind
    22mph, 29mph gusts
  • Sea Temp 44°f
  • Air Temp 30°f
  • Sea Pressure 1006.6mb
  • Portlock Bank- 76nm Ene Of Kodiak, Ak
  • Portlock Bank- 76nm Ene Of Kodiak, Ak

More Historic Weather Station data

Upgrade to MSW Pro to gain access to the past 30 days of data for over 8000 Wavebouys and Weather Stations around the globe.

Join Pro

Comparision Forecast

View Surf forecast
   
Sun 01/25 12:50pm 12ft 9s 7s 22 29 mph 1006.6mb 44f 30f
11:50am 12.5ft 10s 7s 22 29 mph 1006mb 44f 30f
10:50am 13ft 9s 7s 22 31 mph 1005mb 44f 31f
9:50am 13ft 9s 7s 25 34 mph 1003.9mb 44f 31f
8:50am 12.5ft 8s 6s 25 31 mph 1003mb 44f 31f
7:50am 12ft 9s 6s 27 34 mph 1002mb 44f 31f
6:50am 12.5ft 10s 6s 25 34 mph 1001.4mb 44f 31f
5:50am 13ft 10s 7s 25 31 mph 1000.6mb 44f 31f
4:50am 13ft 9s 7s 22 34 mph 1000.2mb 44f 31f
3:50am 13.5ft 10s 7s 25 29 mph 999.4mb 44f 32f
2:50am 15ft 9s 7s 27 36 mph 998.8mb 44f 31f
1:50am 15.5ft 10s 8s 29 36 mph 998.1mb 44f 31f
12:50am 15.5ft 9s 7s 31 40 mph 997.5mb 44f 30f
Sat 01/24 11:50pm 15ft 9s 7s 34 43 mph 997mb 44f 29f
10:50pm 17.5ft 9s 7s 36 45 mph 996.4mb 44f 29f
9:50pm 15.5ft 9s 7s 38 47 mph 995.5mb 44f 30f
8:50pm 14ft 9s 6s 31 38 mph 995.5mb 44f 29f
7:50pm 14ft 9s 6s 34 40 mph 994.7mb 45f 30f
6:50pm 15.5ft 9s 7s 34 43 mph 994.3mb 44f 30f
5:50pm 14ft 9s 7s 31 38 mph 994mb 45f 30f
4:50pm 14ft 9s 7s 34 38 mph 993.7mb 45f 31f
3:50pm 13ft 8s 7s 31 40 mph 993.6mb 45f 32f
2:50pm 15ft 10s 7s 29 36 mph 994.1mb 44f 31f
1:50pm 13.5ft 9s 7s 29 34 mph 994.5mb 44f 31f
12:50pm 13ft 9s 7s 29 36 mph 995mb 44f 32f
11:50am 13.5ft 9s 7s 29 36 mph 995.6mb 45f 32f
10:50am 14ft 10s 7s 27 31 mph 996.4mb 45f 32f
9:50am 14ft 9s 7s 27 31 mph 996.5mb 45f 32f
8:50am 15.5ft 9s 7s 29 36 mph 996.2mb 45f 32f
7:50am 13ft 8s 7s 29 36 mph 996.7mb 45f 31f
6:50am 13ft 9s 7s 27 31 mph 997mb 45f 32f
5:50am 12ft 9s 7s 25 29 mph 997.1mb 45f 32f
4:50am 11ft 8s 7s 22 27 mph 997.4mb 45f 32f
3:50am 10.5ft 8s 7s 20 25 mph 997.3mb 45f 32f
2:50am 11ft 9s 8s 18 22 mph 997.7mb 45f 32f
1:50am 11ft 8s 8s 16 20 mph 997.6mb 45f 32f
12:50am 10ft 9s 7s 16 18 mph 997.2mb 45f 33f
Fri 01/23 11:50pm 10.5ft 11s 7s 16 20 mph 996.6mb 45f 34f
10:50pm 11.5ft 8s 7s 13 16 mph 996.2mb 45f 35f
9:50pm 11ft 10s 7s 11 16 mph 995.4mb 45f 37f
8:50pm 10.5ft 12s 7s 13 18 mph 994.8mb 45f 37f
7:50pm 9.5ft 11s 7s 11 16 mph 994mb 45f 38f
6:50pm 11ft 10s 8s 11 16 mph 993.3mb 45f 39f
5:50pm 9ft 13s 8s 11 13 mph 992.3mb 45f 40f
4:50pm 10.5ft 10s 8s 11 13 mph 991.3mb 45f 41f
3:50pm 11ft 11s 8s 13 16 mph 990.4mb 45f 42f
2:50pm 10ft 11s 8s 13 18 mph 989.7mb 45f 42f
1:50pm 11ft 10s 9s 9 11 mph 989.3mb 45f 43f
12:50pm 11ft 12s 9s 7 9 mph 989.2mb 45f 42f
11:50am 11ft 9s 8s 7 11 mph 989.2mb 45f 42f
10:50am 11.5ft 12s 8s 11 13 mph 988.7mb 45f 42f
9:50am 11ft 14s 8s 7 9 mph 988.5mb 45f 43f
8:50am 11ft 11s 8s 4 7 mph 988.3mb 45f 42f
7:50am 13ft 12s 9s  -  4 mph 988mb 45f 42f
6:50am 14ft 11s 9s  -  4 mph 987.8mb 45f 42f
5:50am 11ft 10s 8s 4 9 mph 987.6mb 45f 42f
4:50am 12ft 12s 8s 4 7 mph 987.3mb 45f 43f
3:50am 11.5ft 12s 8s 11 16 mph 987.1mb 45f 43f
2:50am 10ft 11s 8s 11 13 mph 987mb 45f 43f
1:50am 11ft 11s 7s 13 18 mph 987.1mb 45f 42f
12:50am 11ft 11s 7s 13 20 mph 986.9mb 45f 43f
Thu 01/22 11:50pm 9.5ft 9s 7s 16 20 mph 986.8mb 45f 43f
10:50pm 9ft 11s 6s 16 18 mph 986.4mb 45f 43f
9:50pm 10.5ft 10s 7s 20 27 mph 985.8mb 45f 44f
8:50pm 9.5ft 11s 7s 18 20 mph 985mb 45f 44f
7:50pm 9.5ft 10s 7s 16 22 mph 984.6mb 45f 44f
6:50pm 9.5ft 10s 7s 20 25 mph 984mb 45f 44f
5:50pm 8ft 11s 7s 20 25 mph 983.6mb 45f 44f
4:50pm 8ft 11s 7s 18 20 mph 983.4mb 45f 45f
3:50pm 7ft 10s 7s 18 22 mph 983mb 45f 45f
2:50pm 8ft 10s 7s 20 22 mph 983.2mb 45f 45f
1:50pm 7.5ft 11s 7s 13 18 mph 983.4mb 45f 44f
12:50pm 8ft 11s 7s 18 22 mph 983.3mb 45f 43f
11:50am 7.5ft 12s 7s 18 22 mph 983.2mb 45f 43f
10:50am 7.5ft 9s 6s 16 18 mph 982.7mb 45f 44f
9:50am 8ft 11s 6s 20 25 mph 983.3mb 45f 44f
8:50am 7.5ft 9s 6s 20 25 mph 983.4mb 45f 43f
7:50am 7ft 10s 6s 20 22 mph 983.6mb 45f 43f
6:50am 7.5ft 11s 6s 18 22 mph 984mb 45f 42f
5:50am 8ft 10s 7s 16 18 mph 984.5mb 45f 42f
4:50am 6.5ft 11s 7s 13 18 mph 984.6mb 45f 42f
3:50am 6ft 11s 7s 13 18 mph 985.1mb 45f 42f
2:50am 6ft 10s 8s 11 13 mph 985.3mb 45f 41f
1:50am 6ft 9s 7s 9 11 mph 985.6mb 45f 41f
12:50am 5.5ft 9s 7s 7 11 mph 986.1mb 45f 41f
Wed 01/21 11:50pm 5ft 9s 6s 11 16 mph 986.1mb 45f 41f